Fulham, United Kingdom
Current Conditions -  °F | °C
As of 1:50 PM on Saturday 25 Oct 2014 (Local Time) from EGWU Reporting Station
Broken Clouds Broken Clouds  
Wind Chill: 59°   Ceiling: 4500
Heat Index: 59°   Visibility: 6mi
Dew Point: 45°   Wind: 16mph
Humidity: 59%   Direction: 250°WSW
Pressure: 30.06"   Gusts: NA
Location:  51.48°N, 0.2°W
Report Text: EGWU 251250Z 25014KT 9999 FEW032 BKN045 15/07 Q1018 NOSIG
Loading
Personal Weather Stations






























Interactive Weather Map New forecast layout! Learn more

10-Day Weather Forecast

Advertisements
Track Severe Weather on mobile